createdAt,value
2022-08-16T00:01:02.052Z,28.40
2022-08-16T00:06:11.905Z,28.50
2022-08-16T00:11:22.638Z,28.80
2022-08-16T00:17:00.718Z,29.40
2022-08-16T00:22:02.992Z,29.70
2022-08-16T00:27:13.016Z,30.10
2022-08-16T00:32:18.990Z,30.20
2022-08-16T00:37:58.159Z,30.00
2022-08-16T00:42:55.896Z,30.30
2022-08-16T00:48:30.308Z,30.50
2022-08-16T00:53:36.997Z,31.20
2022-08-16T00:58:48.639Z,31.70
2022-08-16T01:03:56.809Z,32.10
2022-08-16T01:09:07.572Z,32.70
2022-08-16T01:14:25.069Z,33.30
2022-08-16T01:19:46.127Z,32.60
2022-08-16T01:25:02.440Z,32.00
2022-08-16T01:30:26.686Z,31.50
2022-08-16T01:36:11.782Z,31.00
2022-08-16T01:41:29.881Z,30.70
2022-08-16T01:46:40.860Z,30.60
2022-08-16T01:52:00.036Z,30.50
2022-08-16T01:57:35.576Z,30.40
2022-08-16T02:02:42.782Z,30.40
2022-08-16T02:07:49.305Z,30.50
2022-08-16T02:13:00.045Z,30.50
2022-08-16T02:18:12.712Z,30.60
2022-08-16T02:23:19.815Z,31.60
2022-08-16T02:28:27.901Z,33.10
2022-08-16T02:33:44.704Z,33.80
2022-08-16T02:39:05.709Z,33.60
2022-08-16T02:44:14.023Z,33.10
2022-08-16T02:49:58.357Z,33.40
2022-08-16T02:54:55.399Z,34.20
2022-08-16T03:00:34.149Z,34.60
2022-08-16T03:05:31.651Z,35.30
2022-08-16T03:10:39.395Z,35.80
2022-08-16T03:15:49.586Z,35.80
2022-08-16T03:20:58.059Z,35.20
2022-08-16T03:26:03.829Z,34.80
2022-08-16T03:31:10.017Z,34.80
2022-08-16T03:36:30.765Z,35.40
2022-08-16T03:41:50.944Z,35.80
2022-08-16T03:46:58.976Z,36.00
2022-08-16T03:52:14.957Z,36.00
2022-08-16T03:57:22.482Z,35.90
2022-08-16T04:02:31.838Z,36.00
2022-08-16T04:07:42.506Z,36.00
2022-08-16T04:12:53.849Z,35.60
2022-08-16T04:18:14.206Z,35.60
2022-08-16T04:23:19.539Z,36.00
2022-08-16T04:28:52.552Z,36.30
2022-08-16T04:33:51.563Z,36.10
2022-08-16T04:39:00.748Z,36.40
2022-08-16T04:44:33.064Z,36.50
2022-08-16T04:49:43.933Z,37.80
2022-08-16T04:54:54.365Z,37.60
2022-08-16T05:00:30.646Z,37.70
2022-08-16T05:05:30.717Z,36.30
2022-08-16T05:10:43.624Z,37.60
2022-08-16T05:16:24.131Z,35.90
2022-08-16T05:21:38.424Z,35.30
2022-08-16T05:26:51.279Z,35.20
2022-08-16T05:32:32.403Z,37.10
2022-08-16T05:37:50.900Z,39.90
2022-08-16T05:43:01.243Z,41.50
2022-08-16T05:48:26.992Z,41.70
2022-08-16T05:53:39.779Z,39.80
2022-08-16T05:58:52.682Z,37.40
2022-08-16T06:03:59.661Z,36.70
2022-08-16T06:09:11.708Z,38.40
2022-08-16T06:14:26.182Z,40.00
2022-08-16T06:19:36.040Z,40.00
2022-08-16T06:24:55.700Z,42.40
2022-08-16T06:30:12.107Z,42.90
2022-08-16T06:35:27.972Z,44.70
2022-08-16T06:40:49.285Z,45.00
2022-08-16T06:45:55.825Z,43.60
2022-08-16T06:51:08.738Z,43.40
2022-08-16T06:56:23.523Z,41.70
2022-08-16T07:01:53.739Z,40.50
2022-08-16T07:07:04.204Z,39.10
2022-08-16T07:12:11.451Z,39.00
2022-08-16T07:17:24.599Z,39.00
2022-08-16T07:22:37.424Z,37.90
2022-08-16T07:27:58.149Z,36.70
2022-08-16T07:33:08.723Z,35.90
2022-08-16T07:38:19.733Z,35.50
2022-08-16T07:43:31.529Z,35.90
2022-08-16T07:48:47.572Z,37.20
2022-08-16T07:54:02.438Z,37.70
2022-08-16T07:59:19.690Z,39.10
2022-08-16T08:04:25.510Z,41.90
2022-08-16T08:09:43.522Z,42.90
2022-08-16T08:14:51.887Z,40.60
2022-08-16T08:19:57.343Z,38.60
2022-08-16T08:25:06.699Z,38.20
2022-08-16T08:30:52.051Z,37.80
2022-08-16T08:49:18.106Z,36.70
2022-08-16T08:54:24.026Z,36.40
2022-08-16T08:59:33.096Z,36.40
2022-08-16T09:04:41.417Z,36.00
2022-08-16T09:10:06.221Z,35.80
2022-08-16T09:15:17.227Z,35.60
2022-08-16T09:20:30.746Z,35.30
2022-08-16T09:25:36.495Z,35.10
2022-08-16T09:30:46.590Z,35.10
2022-08-16T09:35:54.408Z,35.20
2022-08-16T09:41:00.791Z,35.30
2022-08-16T09:46:44.615Z,35.20
2022-08-16T09:51:36.860Z,35.00
2022-08-16T09:56:52.547Z,34.50
2022-08-16T10:01:59.755Z,34.10
2022-08-16T10:07:15.493Z,33.80
2022-08-16T10:12:42.943Z,33.70
2022-08-16T10:18:00.108Z,33.60
2022-08-16T10:23:17.120Z,33.50
2022-08-16T10:28:28.979Z,33.50
2022-08-16T10:33:40.369Z,33.30
2022-08-16T10:44:37.723Z,33.10
2022-08-16T10:49:44.402Z,32.90
2022-08-16T11:00:22.819Z,32.60
2022-08-16T11:11:07.581Z,32.40
2022-08-16T11:27:20.372Z,32.00
2022-08-16T11:32:31.336Z,31.90
2022-08-16T11:43:05.061Z,31.70
2022-08-16T11:48:27.063Z,31.60
2022-08-16T11:53:36.390Z,31.60
2022-08-16T11:58:43.748Z,31.60
2022-08-16T12:03:58.562Z,31.50
2022-08-16T12:09:07.136Z,31.50
2022-08-16T12:14:15.721Z,31.40
2022-08-16T12:19:23.378Z,31.30
2022-08-16T12:24:39.715Z,31.10
2022-08-16T12:29:45.877Z,31.00
2022-08-16T12:34:53.120Z,31.00
2022-08-16T12:40:03.380Z,30.80
2022-08-16T12:45:27.696Z,30.80
2022-08-16T12:50:33.925Z,30.70
2022-08-16T12:55:47.505Z,30.70
2022-08-16T13:00:54.362Z,30.60
2022-08-16T13:06:01.092Z,30.50
2022-08-16T13:11:13.227Z,30.40
2022-08-16T13:16:27.310Z,30.40
2022-08-16T13:21:33.350Z,30.40
2022-08-16T13:26:39.272Z,30.40
2022-08-16T13:31:45.470Z,30.30
2022-08-16T13:36:51.388Z,30.30
2022-08-16T13:42:03.855Z,30.30
2022-08-16T13:47:10.403Z,30.20
2022-08-16T13:52:16.627Z,30.20
2022-08-16T13:57:22.735Z,30.10
2022-08-16T14:02:49.463Z,30.00
2022-08-16T14:07:56.296Z,29.90
2022-08-16T14:13:03.439Z,29.80
2022-08-16T14:18:17.212Z,29.70
2022-08-16T14:23:27.123Z,29.70
2022-08-16T14:28:33.963Z,29.70
2022-08-16T14:33:39.990Z,29.70
2022-08-16T14:38:47.014Z,29.70
2022-08-16T14:43:54.238Z,29.70
2022-08-16T14:49:02.976Z,29.70
2022-08-16T14:54:11.235Z,29.70
2022-08-16T14:59:17.459Z,29.70
2022-08-16T15:04:39.864Z,29.70
2022-08-16T15:10:00.937Z,29.70
2022-08-16T15:15:16.597Z,29.60
2022-08-16T15:20:22.749Z,29.60
2022-08-16T15:26:08.459Z,29.50
2022-08-16T15:31:16.349Z,29.50
2022-08-16T15:36:23.668Z,29.50
2022-08-16T15:41:46.955Z,29.40
2022-08-16T15:46:58.624Z,29.50
2022-08-16T15:52:10.450Z,29.50
2022-08-16T15:57:18.181Z,29.40
2022-08-16T16:02:29.120Z,29.40
2022-08-16T16:07:40.650Z,29.30
2022-08-16T16:13:05.682Z,29.40
2022-08-16T16:18:15.747Z,29.30
2022-08-16T16:23:26.115Z,29.30
2022-08-16T16:29:06.346Z,29.20
2022-08-16T16:34:02.280Z,29.20
2022-08-16T16:39:10.517Z,29.20
2022-08-16T16:44:18.213Z,29.20
2022-08-16T16:49:41.681Z,29.20
2022-08-16T16:54:48.389Z,29.20
2022-08-16T16:59:55.804Z,29.10
2022-08-16T17:05:02.165Z,29.10
2022-08-16T17:10:08.059Z,29.00
2022-08-16T17:15:15.025Z,29.00
2022-08-16T17:20:25.259Z,28.90
2022-08-16T17:25:36.334Z,28.90
2022-08-16T17:30:45.508Z,28.90
2022-08-16T17:35:55.253Z,28.80
2022-08-16T17:41:05.890Z,28.80
2022-08-16T17:46:51.947Z,28.80
2022-08-16T17:51:40.654Z,28.80
2022-08-16T17:56:47.142Z,28.70
2022-08-16T18:01:53.396Z,28.70
2022-08-16T18:06:59.844Z,28.70
2022-08-16T18:12:44.947Z,28.70
2022-08-16T18:17:47.887Z,28.60
2022-08-16T18:22:53.458Z,28.60
2022-08-16T18:27:58.966Z,28.60
2022-08-16T18:33:04.634Z,28.50
2022-08-16T18:38:10.141Z,28.50
2022-08-16T18:43:21.267Z,28.50
2022-08-16T18:48:46.985Z,28.50
2022-08-16T18:53:52.409Z,28.50
2022-08-16T18:58:57.952Z,28.40
2022-08-16T19:04:47.393Z,28.40
2022-08-16T19:09:41.969Z,28.40
2022-08-16T19:14:47.247Z,28.40
2022-08-16T19:19:52.653Z,28.30
2022-08-16T19:24:58.567Z,28.30
2022-08-16T19:30:04.024Z,28.30
2022-08-16T19:35:09.544Z,28.30
2022-08-16T19:40:37.560Z,28.30
2022-08-16T19:45:45.945Z,28.30
2022-08-16T19:50:52.045Z,28.30
2022-08-16T19:55:58.036Z,28.30
2022-08-16T20:01:04.150Z,28.20
2022-08-16T20:06:10.471Z,28.20
2022-08-16T20:11:37.015Z,28.20
2022-08-16T20:16:43.282Z,28.20
2022-08-16T20:21:48.928Z,28.20
2022-08-16T20:26:54.379Z,28.10
2022-08-16T20:32:00.279Z,28.10
2022-08-16T20:37:07.903Z,28.10
2022-08-16T20:42:20.459Z,28.10
2022-08-16T20:47:26.993Z,28.10
2022-08-16T20:52:33.486Z,28.00
2022-08-16T20:57:39.423Z,28.00
2022-08-16T21:02:45.906Z,28.00
2022-08-16T21:07:53.496Z,27.90
2022-08-16T21:13:04.080Z,27.90
2022-08-16T21:18:09.575Z,28.00
2022-08-16T21:23:15.762Z,27.90
2022-08-16T21:28:41.184Z,27.90
2022-08-16T21:33:55.332Z,27.90
2022-08-16T21:39:01.571Z,27.90
2022-08-16T21:44:07.956Z,27.90
2022-08-16T21:49:13.394Z,27.90
2022-08-16T21:54:19.111Z,27.90
2022-08-16T21:59:24.171Z,27.90
2022-08-16T22:04:36.730Z,27.90
2022-08-16T22:09:44.897Z,27.80
2022-08-16T22:14:50.566Z,27.80
2022-08-16T22:19:56.391Z,27.80
2022-08-16T22:25:03.588Z,27.90
2022-08-16T22:30:09.709Z,27.80
2022-08-16T22:35:16.674Z,27.80
2022-08-16T22:40:26.111Z,27.80
2022-08-16T22:45:31.709Z,27.90
2022-08-16T22:50:37.759Z,27.80
2022-08-16T22:55:44.456Z,27.80
2022-08-16T23:00:49.774Z,27.90
2022-08-16T23:05:56.083Z,28.00
2022-08-16T23:11:01.640Z,28.00
2022-08-16T23:16:11.019Z,28.10
2022-08-16T23:21:19.082Z,28.20
2022-08-16T23:26:46.317Z,28.30
2022-08-16T23:31:50.653Z,28.40
2022-08-16T23:36:59.744Z,28.60
2022-08-16T23:42:53.063Z,28.70
2022-08-16T23:47:42.473Z,28.90
2022-08-16T23:53:03.060Z,28.80
2022-08-16T23:58:09.254Z,28.70
